<?xml version="1.0" encoding="UTF-8"?>
<gpx xmlns="http://www.topografix.com/GPX/1/1" xmlns:xsi="http://www.w3.org/2001/XMLSchema-instance" version="1.1" xsi:schemaLocation="http://www.topografix.com/GPX/1/1 http://www.topografix.com/GPX/1/1/gpx.xsd">
  <metadata>
    <name>Lake Hopatcong Sprint Triathlon Challenge</name>
  </metadata>
  <trk>
    <name>Lake Hopatcong Sprint Triathlon Challenge</name>
    <trkseg>
      <trkpt lat="40.940931" lon="-74.660772">
        <ele>282.221276</ele>
        <time>2024-09-07T07:38:00.000Z</time>
      </trkpt>
      <trkpt lat="40.940951" lon="-74.660704">
        <ele>282.221278</ele>
        <time>2024-09-07T07:38:01.000Z</time>
      </trkpt>
      <trkpt lat="40.941034" lon="-74.660515">
        <ele>282.221266</ele>
        <time>2024-09-07T07:38:03.000Z</time>
      </trkpt>
      <trkpt lat="40.941114" lon="-74.660382">
        <ele>282.22127</ele>
        <time>2024-09-07T07:38:04.000Z</time>
      </trkpt>
      <trkpt lat="40.941134" lon="-74.660344">
        <ele>282.22128</ele>
        <time>2024-09-07T07:38:04.000Z</time>
      </trkpt>
      <trkpt lat="40.941959" lon="-74.659481">
        <ele>282.826531</ele>
        <time>2024-09-07T07:38:16.000Z</time>
      </trkpt>
      <trkpt lat="40.942211" lon="-74.659114">
        <ele>283.258132</ele>
        <time>2024-09-07T07:38:20.000Z</time>
      </trkpt>
      <trkpt lat="40.942765" lon="-74.658573">
        <ele>284.05665</ele>
        <time>2024-09-07T07:38:28.000Z</time>
      </trkpt>
      <trkpt lat="40.943524" lon="-74.658155">
        <ele>286.050708</ele>
        <time>2024-09-07T07:38:37.000Z</time>
      </trkpt>
      <trkpt lat="40.945443" lon="-74.657011">
        <ele>291.444301</ele>
        <time>2024-09-07T07:39:00.000Z</time>
      </trkpt>
      <trkpt lat="40.945874" lon="-74.656833">
        <ele>292.397532</ele>
        <time>2024-09-07T07:39:05.000Z</time>
      </trkpt>
      <trkpt lat="40.946358" lon="-74.656827">
        <ele>293.234247</ele>
        <time>2024-09-07T07:39:10.000Z</time>
      </trkpt>
      <trkpt lat="40.946622" lon="-74.656645">
        <ele>292.957432</ele>
        <time>2024-09-07T07:39:13.000Z</time>
      </trkpt>
      <trkpt lat="40.947445" lon="-74.65593">
        <ele>292.019938</ele>
        <time>2024-09-07T07:39:24.000Z</time>
      </trkpt>
      <trkpt lat="40.947883" lon="-74.655495">
        <ele>291.334871</ele>
        <time>2024-09-07T07:39:30.000Z</time>
      </trkpt>
      <trkpt lat="40.948986" lon="-74.654748">
        <ele>287.886043</ele>
        <time>2024-09-07T07:39:44.000Z</time>
      </trkpt>
      <trkpt lat="40.949393" lon="-74.654205">
        <ele>286.458639</ele>
        <time>2024-09-07T07:39:50.000Z</time>
      </trkpt>
      <trkpt lat="40.949576" lon="-74.65376">
        <ele>286.073046</ele>
        <time>2024-09-07T07:39:54.000Z</time>
      </trkpt>
      <trkpt lat="40.949749" lon="-74.653615">
        <ele>285.878231</ele>
        <time>2024-09-07T07:39:56.000Z</time>
      </trkpt>
      <trkpt lat="40.95016" lon="-74.653431">
        <ele>285.453393</ele>
        <time>2024-09-07T07:40:01.000Z</time>
      </trkpt>
      <trkpt lat="40.95089" lon="-74.652767">
        <ele>285.31754</ele>
        <time>2024-09-07T07:40:11.000Z</time>
      </trkpt>
      <trkpt lat="40.951072" lon="-74.652513">
        <ele>285.994311</ele>
        <time>2024-09-07T07:40:14.000Z</time>
      </trkpt>
      <trkpt lat="40.951397" lon="-74.652147">
        <ele>287.111213</ele>
        <time>2024-09-07T07:40:19.000Z</time>
      </trkpt>
      <trkpt lat="40.951865" lon="-74.651674">
        <ele>288.602831</ele>
        <time>2024-09-07T07:40:26.000Z</time>
      </trkpt>
      <trkpt lat="40.952933" lon="-74.650737">
        <ele>291.288487</ele>
        <time>2024-09-07T07:40:40.000Z</time>
      </trkpt>
      <trkpt lat="40.953166" lon="-74.650529">
        <ele>291.829094</ele>
        <time>2024-09-07T07:40:43.000Z</time>
      </trkpt>
      <trkpt lat="40.953561" lon="-74.649907">
        <ele>292.844235</ele>
        <time>2024-09-07T07:40:50.000Z</time>
      </trkpt>
      <trkpt lat="40.953761" lon="-74.649489">
        <ele>292.456232</ele>
        <time>2024-09-07T07:40:54.000Z</time>
      </trkpt>
      <trkpt lat="40.954587" lon="-74.648691">
        <ele>291.428661</ele>
        <time>2024-09-07T07:41:05.000Z</time>
      </trkpt>
      <trkpt lat="40.954945" lon="-74.648387">
        <ele>291.026591</ele>
        <time>2024-09-07T07:41:10.000Z</time>
      </trkpt>
      <trkpt lat="40.955411" lon="-74.647798">
        <ele>290.59568</ele>
        <time>2024-09-07T07:41:17.000Z</time>
      </trkpt>
      <trkpt lat="40.955627" lon="-74.648071">
        <ele>290.387923</ele>
        <time>2024-09-07T07:41:20.000Z</time>
      </trkpt>
      <trkpt lat="40.955921" lon="-74.648437">
        <ele>290.113859</ele>
        <time>2024-09-07T07:41:24.000Z</time>
      </trkpt>
      <trkpt lat="40.956095" lon="-74.648603">
        <ele>289.968748</ele>
        <time>2024-09-07T07:41:26.000Z</time>
      </trkpt>
      <trkpt lat="40.956306" lon="-74.64867">
        <ele>289.869132</ele>
        <time>2024-09-07T07:41:28.000Z</time>
      </trkpt>
      <trkpt lat="40.957398" lon="-74.648756">
        <ele>289.730105</ele>
        <time>2024-09-07T07:41:40.000Z</time>
      </trkpt>
      <trkpt lat="40.957622" lon="-74.648815">
        <ele>289.701873</ele>
        <time>2024-09-07T07:41:43.000Z</time>
      </trkpt>
      <trkpt lat="40.957844" lon="-74.649002">
        <ele>289.669127</ele>
        <time>2024-09-07T07:41:46.000Z</time>
      </trkpt>
      <trkpt lat="40.95807" lon="-74.649298">
        <ele>290.033901</ele>
        <time>2024-09-07T07:41:50.000Z</time>
      </trkpt>
      <trkpt lat="40.958332" lon="-74.649755">
        <ele>290.890193</ele>
        <time>2024-09-07T07:41:55.000Z</time>
      </trkpt>
      <trkpt lat="40.958545" lon="-74.650353">
        <ele>291.890269</ele>
        <time>2024-09-07T07:42:01.000Z</time>
      </trkpt>
      <trkpt lat="40.95871" lon="-74.650768">
        <ele>292.600104</ele>
        <time>2024-09-07T07:42:05.000Z</time>
      </trkpt>
      <trkpt lat="40.95879" lon="-74.650902">
        <ele>292.853981</ele>
        <time>2024-09-07T07:42:06.000Z</time>
      </trkpt>
      <trkpt lat="40.958877" lon="-74.650989">
        <ele>293.064564</ele>
        <time>2024-09-07T07:42:07.000Z</time>
      </trkpt>
      <trkpt lat="40.959458" lon="-74.651294">
        <ele>294.018479</ele>
        <time>2024-09-07T07:42:14.000Z</time>
      </trkpt>
      <trkpt lat="40.959613" lon="-74.651381">
        <ele>294.274957</ele>
        <time>2024-09-07T07:42:16.000Z</time>
      </trkpt>
      <trkpt lat="40.959791" lon="-74.651553">
        <ele>294.598022</ele>
        <time>2024-09-07T07:42:18.000Z</time>
      </trkpt>
      <trkpt lat="40.959894" lon="-74.651763">
        <ele>294.87953</ele>
        <time>2024-09-07T07:42:20.000Z</time>
      </trkpt>
      <trkpt lat="40.959899" lon="-74.65184">
        <ele>294.954837</ele>
        <time>2024-09-07T07:42:21.000Z</time>
      </trkpt>
      <trkpt lat="40.959926" lon="-74.652016">
        <ele>295.167185</ele>
        <time>2024-09-07T07:42:23.000Z</time>
      </trkpt>
      <trkpt lat="40.959856" lon="-74.652867">
        <ele>295.725561</ele>
        <time>2024-09-07T07:42:30.000Z</time>
      </trkpt>
      <trkpt lat="40.959761" lon="-74.653415">
        <ele>295.378143</ele>
        <time>2024-09-07T07:42:35.000Z</time>
      </trkpt>
      <trkpt lat="40.959684" lon="-74.653532">
        <ele>295.292665</ele>
        <time>2024-09-07T07:42:36.000Z</time>
      </trkpt>
      <trkpt lat="40.959571" lon="-74.653646">
        <ele>295.17742</ele>
        <time>2024-09-07T07:42:38.000Z</time>
      </trkpt>
      <trkpt lat="40.959536" lon="-74.653703">
        <ele>295.129422</ele>
        <time>2024-09-07T07:42:39.000Z</time>
      </trkpt>
      <trkpt lat="40.95936" lon="-74.653851">
        <ele>294.959592</ele>
        <time>2024-09-07T07:42:41.000Z</time>
      </trkpt>
      <trkpt lat="40.958736" lon="-74.654466">
        <ele>294.395982</ele>
        <time>2024-09-07T07:42:50.000Z</time>
      </trkpt>
      <trkpt lat="40.958212" lon="-74.654924">
        <ele>294.408965</ele>
        <time>2024-09-07T07:42:57.000Z</time>
      </trkpt>
      <trkpt lat="40.958032" lon="-74.655115">
        <ele>294.413846</ele>
        <time>2024-09-07T07:43:00.000Z</time>
      </trkpt>
      <trkpt lat="40.957955" lon="-74.655439">
        <ele>294.419296</ele>
        <time>2024-09-07T07:43:03.000Z</time>
      </trkpt>
      <trkpt lat="40.957951" lon="-74.65644">
        <ele>294.273334</ele>
        <time>2024-09-07T07:43:11.000Z</time>
      </trkpt>
      <trkpt lat="40.957867" lon="-74.656891">
        <ele>293.95665</ele>
        <time>2024-09-07T07:43:15.000Z</time>
      </trkpt>
      <trkpt lat="40.957763" lon="-74.657158">
        <ele>293.744648</ele>
        <time>2024-09-07T07:43:18.000Z</time>
      </trkpt>
      <trkpt lat="40.957569" lon="-74.657493">
        <ele>293.457148</ele>
        <time>2024-09-07T07:43:22.000Z</time>
      </trkpt>
      <trkpt lat="40.957401" lon="-74.657747">
        <ele>293.221187</ele>
        <time>2024-09-07T07:43:25.000Z</time>
      </trkpt>
      <trkpt lat="40.957296" lon="-74.657881">
        <ele>293.07795</ele>
        <time>2024-09-07T07:43:27.000Z</time>
      </trkpt>
      <trkpt lat="40.956684" lon="-74.658387">
        <ele>292.207875</ele>
        <time>2024-09-07T07:43:35.000Z</time>
      </trkpt>
      <trkpt lat="40.956073" lon="-74.658949">
        <ele>291.111251</ele>
        <time>2024-09-07T07:43:43.000Z</time>
      </trkpt>
      <trkpt lat="40.955217" lon="-74.65993">
        <ele>290.780264</ele>
        <time>2024-09-07T07:43:56.000Z</time>
      </trkpt>
      <trkpt lat="40.954943" lon="-74.660406">
        <ele>291.429708</ele>
        <time>2024-09-07T07:44:01.000Z</time>
      </trkpt>
      <trkpt lat="40.954889" lon="-74.660648">
        <ele>291.714225</ele>
        <time>2024-09-07T07:44:03.000Z</time>
      </trkpt>
      <trkpt lat="40.954884" lon="-74.660978">
        <ele>292.061874</ele>
        <time>2024-09-07T07:44:06.000Z</time>
      </trkpt>
      <trkpt lat="40.954926" lon="-74.661161">
        <ele>292.272392</ele>
        <time>2024-09-07T07:44:08.000Z</time>
      </trkpt>
      <trkpt lat="40.954934" lon="-74.661249">
        <ele>292.375778</ele>
        <time>2024-09-07T07:44:09.000Z</time>
      </trkpt>
      <trkpt lat="40.95511" lon="-74.661441">
        <ele>292.698618</ele>
        <time>2024-09-07T07:44:12.000Z</time>
      </trkpt>
      <trkpt lat="40.955413" lon="-74.661651">
        <ele>293.74608</ele>
        <time>2024-09-07T07:44:16.000Z</time>
      </trkpt>
      <trkpt lat="40.955708" lon="-74.661958">
        <ele>294.921179</ele>
        <time>2024-09-07T07:44:20.000Z</time>
      </trkpt>
      <trkpt lat="40.956042" lon="-74.662293">
        <ele>296.245235</ele>
        <time>2024-09-07T07:44:25.000Z</time>
      </trkpt>
      <trkpt lat="40.956205" lon="-74.662519">
        <ele>297.004128</ele>
        <time>2024-09-07T07:44:28.000Z</time>
      </trkpt>
      <trkpt lat="40.956331" lon="-74.662804">
        <ele>297.780171</ele>
        <time>2024-09-07T07:44:31.000Z</time>
      </trkpt>
      <trkpt lat="40.956633" lon="-74.663087">
        <ele>298.855998</ele>
        <time>2024-09-07T07:44:35.000Z</time>
      </trkpt>
      <trkpt lat="40.956796" lon="-74.663131">
        <ele>299.320959</ele>
        <time>2024-09-07T07:44:37.000Z</time>
      </trkpt>
      <trkpt lat="40.957406" lon="-74.663211">
        <ele>300.9047</ele>
        <time>2024-09-07T07:44:44.000Z</time>
      </trkpt>
      <trkpt lat="40.957818" lon="-74.66327">
        <ele>301.994272</ele>
        <time>2024-09-07T07:44:49.000Z</time>
      </trkpt>
      <trkpt lat="40.958115" lon="-74.663361">
        <ele>302.776128</ele>
        <time>2024-09-07T07:44:52.000Z</time>
      </trkpt>
      <trkpt lat="40.958479" lon="-74.663604">
        <ele>304.080574</ele>
        <time>2024-09-07T07:44:57.000Z</time>
      </trkpt>
      <trkpt lat="40.958934" lon="-74.663979">
        <ele>305.952694</ele>
        <time>2024-09-07T07:45:03.000Z</time>
      </trkpt>
      <trkpt lat="40.959138" lon="-74.663677">
        <ele>306.98611</ele>
        <time>2024-09-07T07:45:06.000Z</time>
      </trkpt>
      <trkpt lat="40.959315" lon="-74.663536">
        <ele>307.72079</ele>
        <time>2024-09-07T07:45:08.000Z</time>
      </trkpt>
      <trkpt lat="40.959457" lon="-74.663456">
        <ele>308.224977</ele>
        <time>2024-09-07T07:45:10.000Z</time>
      </trkpt>
      <trkpt lat="40.95995" lon="-74.66333">
        <ele>309.469454</ele>
        <time>2024-09-07T07:45:16.000Z</time>
      </trkpt>
      <trkpt lat="40.960128" lon="-74.663204">
        <ele>309.682707</ele>
        <time>2024-09-07T07:45:18.000Z</time>
      </trkpt>
      <trkpt lat="40.960241" lon="-74.663058">
        <ele>309.858133</ele>
        <time>2024-09-07T07:45:20.000Z</time>
      </trkpt>
      <trkpt lat="40.960479" lon="-74.662513">
        <ele>310.385621</ele>
        <time>2024-09-07T07:45:25.000Z</time>
      </trkpt>
      <trkpt lat="40.960545" lon="-74.66243">
        <ele>310.472232</ele>
        <time>2024-09-07T07:45:26.000Z</time>
      </trkpt>
      <trkpt lat="40.961183" lon="-74.662057">
        <ele>311.15413</ele>
        <time>2024-09-07T07:45:34.000Z</time>
      </trkpt>
      <trkpt lat="40.961345" lon="-74.661915">
        <ele>310.681628</ele>
        <time>2024-09-07T07:45:36.000Z</time>
      </trkpt>
      <trkpt lat="40.961658" lon="-74.661477">
        <ele>309.584868</ele>
        <time>2024-09-07T07:45:41.000Z</time>
      </trkpt>
      <trkpt lat="40.961795" lon="-74.661379">
        <ele>309.225952</ele>
        <time>2024-09-07T07:45:43.000Z</time>
      </trkpt>
      <trkpt lat="40.962407" lon="-74.661017">
        <ele>307.62881</ele>
        <time>2024-09-07T07:45:50.000Z</time>
      </trkpt>
      <trkpt lat="40.962826" lon="-74.660855">
        <ele>306.588611</ele>
        <time>2024-09-07T07:45:55.000Z</time>
      </trkpt>
      <trkpt lat="40.96291" lon="-74.660774">
        <ele>306.377263</ele>
        <time>2024-09-07T07:45:56.000Z</time>
      </trkpt>
      <trkpt lat="40.963575" lon="-74.659872">
        <ele>304.297758</ele>
        <time>2024-09-07T07:46:07.000Z</time>
      </trkpt>
      <trkpt lat="40.963834" lon="-74.659598">
        <ele>303.556495</ele>
        <time>2024-09-07T07:46:11.000Z</time>
      </trkpt>
      <trkpt lat="40.964584" lon="-74.65918">
        <ele>302.741278</ele>
        <time>2024-09-07T07:46:20.000Z</time>
      </trkpt>
      <trkpt lat="40.964707" lon="-74.659033">
        <ele>302.673604</ele>
        <time>2024-09-07T07:46:22.000Z</time>
      </trkpt>
      <trkpt lat="40.964897" lon="-74.658679">
        <ele>302.533802</ele>
        <time>2024-09-07T07:46:26.000Z</time>
      </trkpt>
      <trkpt lat="40.964949" lon="-74.658343">
        <ele>302.427685</ele>
        <time>2024-09-07T07:46:29.000Z</time>
      </trkpt>
      <trkpt lat="40.964939" lon="-74.658065">
        <ele>302.336645</ele>
        <time>2024-09-07T07:46:31.000Z</time>
      </trkpt>
      <trkpt lat="40.964835" lon="-74.657562">
        <ele>302.151664</ele>
        <time>2024-09-07T07:46:35.000Z</time>
      </trkpt>
      <trkpt lat="40.964787" lon="-74.65733">
        <ele>302.044241</ele>
        <time>2024-09-07T07:46:37.000Z</time>
      </trkpt>
      <trkpt lat="40.964808" lon="-74.657005">
        <ele>301.904424</ele>
        <time>2024-09-07T07:46:40.000Z</time>
      </trkpt>
      <trkpt lat="40.964789" lon="-74.656654">
        <ele>301.744711</ele>
        <time>2024-09-07T07:46:43.000Z</time>
      </trkpt>
      <trkpt lat="40.964715" lon="-74.656296">
        <ele>301.577521</ele>
        <time>2024-09-07T07:46:46.000Z</time>
      </trkpt>
      <trkpt lat="40.964705" lon="-74.65596">
        <ele>301.429907</ele>
        <time>2024-09-07T07:46:49.000Z</time>
      </trkpt>
      <trkpt lat="40.964802" lon="-74.655445">
        <ele>301.189418</ele>
        <time>2024-09-07T07:46:53.000Z</time>
      </trkpt>
      <trkpt lat="40.964919" lon="-74.655152">
        <ele>300.578054</ele>
        <time>2024-09-07T07:46:56.000Z</time>
      </trkpt>
      <trkpt lat="40.96509" lon="-74.654899">
        <ele>299.753747</ele>
        <time>2024-09-07T07:46:59.000Z</time>
      </trkpt>
      <trkpt lat="40.965361" lon="-74.654593">
        <ele>298.592694</ele>
        <time>2024-09-07T07:47:03.000Z</time>
      </trkpt>
      <trkpt lat="40.965441" lon="-74.654487">
        <ele>298.249469</ele>
        <time>2024-09-07T07:47:04.000Z</time>
      </trkpt>
      <trkpt lat="40.965596" lon="-74.654064">
        <ele>297.092341</ele>
        <time>2024-09-07T07:47:08.000Z</time>
      </trkpt>
      <trkpt lat="40.965719" lon="-74.653502">
        <ele>295.679073</ele>
        <time>2024-09-07T07:47:13.000Z</time>
      </trkpt>
      <trkpt lat="40.966234" lon="-74.652051">
        <ele>291.552915</ele>
        <time>2024-09-07T07:47:26.000Z</time>
      </trkpt>
      <trkpt lat="40.966281" lon="-74.651822">
        <ele>290.952216</ele>
        <time>2024-09-07T07:47:28.000Z</time>
      </trkpt>
      <trkpt lat="40.96638" lon="-74.651546">
        <ele>290.159318</ele>
        <time>2024-09-07T07:47:31.000Z</time>
      </trkpt>
      <trkpt lat="40.966561" lon="-74.650988">
        <ele>289.120796</ele>
        <time>2024-09-07T07:47:36.000Z</time>
      </trkpt>
      <trkpt lat="40.96684" lon="-74.650562">
        <ele>288.979057</ele>
        <time>2024-09-07T07:47:41.000Z</time>
      </trkpt>
      <trkpt lat="40.96726" lon="-74.650009">
        <ele>288.776334</ele>
        <time>2024-09-07T07:47:48.000Z</time>
      </trkpt>
      <trkpt lat="40.96735" lon="-74.649736">
        <ele>288.699742</ele>
        <time>2024-09-07T07:47:51.000Z</time>
      </trkpt>
      <trkpt lat="40.967428" lon="-74.649422">
        <ele>288.611329</ele>
        <time>2024-09-07T07:47:54.000Z</time>
      </trkpt>
      <trkpt lat="40.967456" lon="-74.649026">
        <ele>288.923202</ele>
        <time>2024-09-07T07:47:57.000Z</time>
      </trkpt>
      <trkpt lat="40.967406" lon="-74.64875">
        <ele>289.377209</ele>
        <time>2024-09-07T07:47:59.000Z</time>
      </trkpt>
      <trkpt lat="40.96733" lon="-74.648527">
        <ele>289.762139</ele>
        <time>2024-09-07T07:48:01.000Z</time>
      </trkpt>
      <trkpt lat="40.967252" lon="-74.64835">
        <ele>290.099557</ele>
        <time>2024-09-07T07:48:03.000Z</time>
      </trkpt>
      <trkpt lat="40.967137" lon="-74.648173">
        <ele>290.4659</ele>
        <time>2024-09-07T07:48:05.000Z</time>
      </trkpt>
      <trkpt lat="40.967002" lon="-74.648026">
        <ele>290.836254</ele>
        <time>2024-09-07T07:48:07.000Z</time>
      </trkpt>
      <trkpt lat="40.966857" lon="-74.647903">
        <ele>291.220424</ele>
        <time>2024-09-07T07:48:09.000Z</time>
      </trkpt>
      <trkpt lat="40.966634" lon="-74.647785">
        <ele>291.737732</ele>
        <time>2024-09-07T07:48:12.000Z</time>
      </trkpt>
      <trkpt lat="40.966406" lon="-74.647712">
        <ele>292.229478</ele>
        <time>2024-09-07T07:48:15.000Z</time>
      </trkpt>
      <trkpt lat="40.966081" lon="-74.647589">
        <ele>292.54451</ele>
        <time>2024-09-07T07:48:19.000Z</time>
      </trkpt>
      <trkpt lat="40.965873" lon="-74.647465">
        <ele>292.667661</ele>
        <time>2024-09-07T07:48:22.000Z</time>
      </trkpt>
      <trkpt lat="40.965641" lon="-74.646952">
        <ele>292.927862</ele>
        <time>2024-09-07T07:48:27.000Z</time>
      </trkpt>
      <trkpt lat="40.965589" lon="-74.646564">
        <ele>293.094619</ele>
        <time>2024-09-07T07:48:30.000Z</time>
      </trkpt>
      <trkpt lat="40.965627" lon="-74.646089">
        <ele>293.297641</ele>
        <time>2024-09-07T07:48:34.000Z</time>
      </trkpt>
      <trkpt lat="40.965941" lon="-74.645517">
        <ele>293.545425</ele>
        <time>2024-09-07T07:48:40.000Z</time>
      </trkpt>
      <trkpt lat="40.966633" lon="-74.644408">
        <ele>293.983797</ele>
        <time>2024-09-07T07:48:52.000Z</time>
      </trkpt>
      <trkpt lat="40.966729" lon="-74.644286">
        <ele>294.038212</ele>
        <time>2024-09-07T07:48:53.000Z</time>
      </trkpt>
      <trkpt lat="40.966983" lon="-74.643974">
        <ele>294.055069</ele>
        <time>2024-09-07T07:48:57.000Z</time>
      </trkpt>
      <trkpt lat="40.967277" lon="-74.643658">
        <ele>293.705283</ele>
        <time>2024-09-07T07:49:01.000Z</time>
      </trkpt>
      <trkpt lat="40.967472" lon="-74.643554">
        <ele>293.511836</ele>
        <time>2024-09-07T07:49:03.000Z</time>
      </trkpt>
      <trkpt lat="40.967668" lon="-74.643348">
        <ele>293.300627</ele>
        <time>2024-09-07T07:49:06.000Z</time>
      </trkpt>
      <trkpt lat="40.96809" lon="-74.64306">
        <ele>292.861769</ele>
        <time>2024-09-07T07:49:11.000Z</time>
      </trkpt>
      <trkpt lat="40.968308" lon="-74.6429">
        <ele>292.653531</ele>
        <time>2024-09-07T07:49:14.000Z</time>
      </trkpt>
      <trkpt lat="40.968822" lon="-74.642684">
        <ele>291.432522</ele>
        <time>2024-09-07T07:49:20.000Z</time>
      </trkpt>
      <trkpt lat="40.969146" lon="-74.642405">
        <ele>290.341434</ele>
        <time>2024-09-07T07:49:24.000Z</time>
      </trkpt>
      <trkpt lat="40.969445" lon="-74.642136">
        <ele>289.371044</ele>
        <time>2024-09-07T07:49:28.000Z</time>
      </trkpt>
      <trkpt lat="40.969886" lon="-74.641877">
        <ele>288.022188</ele>
        <time>2024-09-07T07:49:33.000Z</time>
      </trkpt>
      <trkpt lat="40.970217" lon="-74.641657">
        <ele>287.313526</ele>
        <time>2024-09-07T07:49:37.000Z</time>
      </trkpt>
      <trkpt lat="40.9704" lon="-74.641419">
        <ele>287.001523</ele>
        <time>2024-09-07T07:49:40.000Z</time>
      </trkpt>
      <trkpt lat="40.970589" lon="-74.641237">
        <ele>286.717005</ele>
        <time>2024-09-07T07:49:43.000Z</time>
      </trkpt>
      <trkpt lat="40.970743" lon="-74.641034">
        <ele>286.436302</ele>
        <time>2024-09-07T07:49:45.000Z</time>
      </trkpt>
      <trkpt lat="40.970933" lon="-74.640725">
        <ele>286.06954</ele>
        <time>2024-09-07T07:49:48.000Z</time>
      </trkpt>
      <trkpt lat="40.970996" lon="-74.640518">
        <ele>285.857901</ele>
        <time>2024-09-07T07:49:50.000Z</time>
      </trkpt>
      <trkpt lat="40.971068" lon="-74.640167">
        <ele>285.528128</ele>
        <time>2024-09-07T07:49:53.000Z</time>
      </trkpt>
      <trkpt lat="40.971062" lon="-74.639894">
        <ele>285.383336</ele>
        <time>2024-09-07T07:49:55.000Z</time>
      </trkpt>
      <trkpt lat="40.971019" lon="-74.639701">
        <ele>285.474309</ele>
        <time>2024-09-07T07:49:57.000Z</time>
      </trkpt>
      <trkpt lat="40.970938" lon="-74.639523">
        <ele>285.56615</ele>
        <time>2024-09-07T07:49:59.000Z</time>
      </trkpt>
      <trkpt lat="40.970735" lon="-74.639316">
        <ele>285.723713</ele>
        <time>2024-09-07T07:50:02.000Z</time>
      </trkpt>
      <trkpt lat="40.970454" lon="-74.639086">
        <ele>285.92331</ele>
        <time>2024-09-07T07:50:06.000Z</time>
      </trkpt>
      <trkpt lat="40.970356" lon="-74.638942">
        <ele>286.014482</ele>
        <time>2024-09-07T07:50:08.000Z</time>
      </trkpt>
      <trkpt lat="40.970315" lon="-74.63875">
        <ele>286.105973</ele>
        <time>2024-09-07T07:50:10.000Z</time>
      </trkpt>
      <trkpt lat="40.970323" lon="-74.638442">
        <ele>286.246484</ele>
        <time>2024-09-07T07:50:13.000Z</time>
      </trkpt>
      <trkpt lat="40.970409" lon="-74.638151">
        <ele>286.390326</ele>
        <time>2024-09-07T07:50:16.000Z</time>
      </trkpt>
      <trkpt lat="40.970427" lon="-74.637915">
        <ele>286.484912</ele>
        <time>2024-09-07T07:50:18.000Z</time>
      </trkpt>
      <trkpt lat="40.97043" lon="-74.637301">
        <ele>286.727391</ele>
        <time>2024-09-07T07:50:23.000Z</time>
      </trkpt>
      <trkpt lat="40.970465" lon="-74.636932">
        <ele>286.872452</ele>
        <time>2024-09-07T07:50:26.000Z</time>
      </trkpt>
      <trkpt lat="40.970546" lon="-74.636755">
        <ele>286.955631</ele>
        <time>2024-09-07T07:50:28.000Z</time>
      </trkpt>
      <trkpt lat="40.970921" lon="-74.636407">
        <ele>287.190384</ele>
        <time>2024-09-07T07:50:33.000Z</time>
      </trkpt>
      <trkpt lat="40.971577" lon="-74.635652">
        <ele>287.481095</ele>
        <time>2024-09-07T07:50:43.000Z</time>
      </trkpt>
      <trkpt lat="40.971799" lon="-74.635412">
        <ele>287.546213</ele>
        <time>2024-09-07T07:50:46.000Z</time>
      </trkpt>
      <trkpt lat="40.971938" lon="-74.635248">
        <ele>287.588402</ele>
        <time>2024-09-07T07:50:48.000Z</time>
      </trkpt>
      <trkpt lat="40.972073" lon="-74.635111">
        <ele>287.623963</ele>
        <time>2024-09-07T07:50:50.000Z</time>
      </trkpt>
      <trkpt lat="40.973568" lon="-74.633413">
        <ele>287.953383</ele>
        <time>2024-09-07T07:51:12.000Z</time>
      </trkpt>
      <trkpt lat="40.974159" lon="-74.632861">
        <ele>288.243158</ele>
        <time>2024-09-07T07:51:20.000Z</time>
      </trkpt>
      <trkpt lat="40.97458" lon="-74.632476">
        <ele>288.656442</ele>
        <time>2024-09-07T07:51:26.000Z</time>
      </trkpt>
      <trkpt lat="40.974696" lon="-74.632379">
        <ele>288.767394</ele>
        <time>2024-09-07T07:51:28.000Z</time>
      </trkpt>
      <trkpt lat="40.975083" lon="-74.632088">
        <ele>289.137399</ele>
        <time>2024-09-07T07:51:33.000Z</time>
      </trkpt>
      <trkpt lat="40.975183" lon="-74.632016">
        <ele>289.222922</ele>
        <time>2024-09-07T07:51:34.000Z</time>
      </trkpt>
      <trkpt lat="40.976096" lon="-74.631678">
        <ele>290.18626</ele>
        <time>2024-09-07T07:51:45.000Z</time>
      </trkpt>
      <trkpt lat="40.976486" lon="-74.631437">
        <ele>290.642675</ele>
        <time>2024-09-07T07:51:50.000Z</time>
      </trkpt>
      <trkpt lat="40.976719" lon="-74.631164">
        <ele>290.992279</ele>
        <time>2024-09-07T07:51:53.000Z</time>
      </trkpt>
      <trkpt lat="40.976899" lon="-74.630743">
        <ele>291.388751</ele>
        <time>2024-09-07T07:51:57.000Z</time>
      </trkpt>
      <trkpt lat="40.97698" lon="-74.630409">
        <ele>291.608203</ele>
        <time>2024-09-07T07:52:00.000Z</time>
      </trkpt>
      <trkpt lat="40.976969" lon="-74.630013">
        <ele>291.834536</ele>
        <time>2024-09-07T07:52:03.000Z</time>
      </trkpt>
      <trkpt lat="40.976885" lon="-74.629702">
        <ele>292.030211</ele>
        <time>2024-09-07T07:52:06.000Z</time>
      </trkpt>
      <trkpt lat="40.976708" lon="-74.62933">
        <ele>292.27713</ele>
        <time>2024-09-07T07:52:10.000Z</time>
      </trkpt>
      <trkpt lat="40.976279" lon="-74.628888">
        <ele>292.691581</ele>
        <time>2024-09-07T07:52:16.000Z</time>
      </trkpt>
      <trkpt lat="40.97625" lon="-74.628886">
        <ele>292.708976</ele>
        <time>2024-09-07T07:52:16.000Z</time>
      </trkpt>
      <trkpt lat="40.976032" lon="-74.628655">
        <ele>293.139805</ele>
        <time>2024-09-07T07:52:19.000Z</time>
      </trkpt>
      <trkpt lat="40.975903" lon="-74.62842">
        <ele>293.646452</ele>
        <time>2024-09-07T07:52:21.000Z</time>
      </trkpt>
      <trkpt lat="40.975687" lon="-74.627638">
        <ele>295.141206</ele>
        <time>2024-09-07T07:52:28.000Z</time>
      </trkpt>
      <trkpt lat="40.975608" lon="-74.62737">
        <ele>295.6542</ele>
        <time>2024-09-07T07:52:30.000Z</time>
      </trkpt>
      <trkpt lat="40.975604" lon="-74.627362">
        <ele>295.673955</ele>
        <time>2024-09-07T07:52:30.000Z</time>
      </trkpt>
      <trkpt lat="40.975578" lon="-74.627148">
        <ele>296.064072</ele>
        <time>2024-09-07T07:52:32.000Z</time>
      </trkpt>
      <trkpt lat="40.975555" lon="-74.626502">
        <ele>297.059325</ele>
        <time>2024-09-07T07:52:37.000Z</time>
      </trkpt>
      <trkpt lat="40.975534" lon="-74.626329">
        <ele>297.051703</ele>
        <time>2024-09-07T07:52:38.000Z</time>
      </trkpt>
      <trkpt lat="40.975484" lon="-74.626218">
        <ele>297.045156</ele>
        <time>2024-09-07T07:52:39.000Z</time>
      </trkpt>
      <trkpt lat="40.975281" lon="-74.62656">
        <ele>297.024377</ele>
        <time>2024-09-07T07:52:43.000Z</time>
      </trkpt>
      <trkpt lat="40.974962" lon="-74.627398">
        <ele>296.979406</ele>
        <time>2024-09-07T07:52:51.000Z</time>
      </trkpt>
      <trkpt lat="40.974832" lon="-74.627575">
        <ele>296.967426</ele>
        <time>2024-09-07T07:52:53.000Z</time>
      </trkpt>
      <trkpt lat="40.974579" lon="-74.62783">
        <ele>296.960666</ele>
        <time>2024-09-07T07:52:57.000Z</time>
      </trkpt>
      <trkpt lat="40.974288" lon="-74.628008">
        <ele>297.028362</ele>
        <time>2024-09-07T07:53:01.000Z</time>
      </trkpt>
      <trkpt lat="40.973243" lon="-74.628421">
        <ele>297.268593</ele>
        <time>2024-09-07T07:53:13.000Z</time>
      </trkpt>
      <trkpt lat="40.972659" lon="-74.628702">
        <ele>298.115144</ele>
        <time>2024-09-07T07:53:20.000Z</time>
      </trkpt>
      <trkpt lat="40.97203" lon="-74.629253">
        <ele>300.176075</ele>
        <time>2024-09-07T07:53:28.000Z</time>
      </trkpt>
      <trkpt lat="40.971824" lon="-74.629522">
        <ele>300.949615</ele>
        <time>2024-09-07T07:53:31.000Z</time>
      </trkpt>
      <trkpt lat="40.971468" lon="-74.628949">
        <ele>302.282389</ele>
        <time>2024-09-07T07:53:37.000Z</time>
      </trkpt>
      <trkpt lat="40.971319" lon="-74.628888">
        <ele>302.336272</ele>
        <time>2024-09-07T07:53:39.000Z</time>
      </trkpt>
      <trkpt lat="40.970851" lon="-74.628863">
        <ele>302.498883</ele>
        <time>2024-09-07T07:53:44.000Z</time>
      </trkpt>
      <trkpt lat="40.967313" lon="-74.628785">
        <ele>299.883137</ele>
        <time>2024-09-07T07:54:23.000Z</time>
      </trkpt>
      <trkpt lat="40.966563" lon="-74.628783">
        <ele>298.54876</ele>
        <time>2024-09-07T07:54:31.000Z</time>
      </trkpt>
      <trkpt lat="40.966097" lon="-74.628774">
        <ele>297.8387</ele>
        <time>2024-09-07T07:54:36.000Z</time>
      </trkpt>
      <trkpt lat="40.96509" lon="-74.628856">
        <ele>297.946973</ele>
        <time>2024-09-07T07:54:47.000Z</time>
      </trkpt>
      <trkpt lat="40.965076" lon="-74.628724">
        <ele>297.957672</ele>
        <time>2024-09-07T07:54:48.000Z</time>
      </trkpt>
      <trkpt lat="40.965029" lon="-74.627999">
        <ele>298.0176</ele>
        <time>2024-09-07T07:54:54.000Z</time>
      </trkpt>
      <trkpt lat="40.966351" lon="-74.627825">
        <ele>299.219026</ele>
        <time>2024-09-07T07:55:09.000Z</time>
      </trkpt>
      <trkpt lat="40.967226" lon="-74.627751">
        <ele>300.523049</ele>
        <time>2024-09-07T07:55:19.000Z</time>
      </trkpt>
      <trkpt lat="40.968209" lon="-74.627637">
        <ele>302.827809</ele>
        <time>2024-09-07T07:55:30.000Z</time>
      </trkpt>
      <trkpt lat="40.968628" lon="-74.627506">
        <ele>303.855954</ele>
        <time>2024-09-07T07:55:35.000Z</time>
      </trkpt>
      <trkpt lat="40.969726" lon="-74.627626">
        <ele>306.735568</ele>
        <time>2024-09-07T07:55:47.000Z</time>
      </trkpt>
      <trkpt lat="40.970947" lon="-74.627974">
        <ele>307.383927</ele>
        <time>2024-09-07T07:56:01.000Z</time>
      </trkpt>
      <trkpt lat="40.971773" lon="-74.628364">
        <ele>305.083282</ele>
        <time>2024-09-07T07:56:11.000Z</time>
      </trkpt>
      <trkpt lat="40.972483" lon="-74.62869">
        <ele>302.739848</ele>
        <time>2024-09-07T07:56:19.000Z</time>
      </trkpt>
      <trkpt lat="40.972653" lon="-74.628695">
        <ele>302.066004</ele>
        <time>2024-09-07T07:56:21.000Z</time>
      </trkpt>
      <trkpt lat="40.973247" lon="-74.628431">
        <ele>299.687042</ele>
        <time>2024-09-07T07:56:28.000Z</time>
      </trkpt>
      <trkpt lat="40.974295" lon="-74.628021">
        <ele>297.245299</ele>
        <time>2024-09-07T07:56:40.000Z</time>
      </trkpt>
      <trkpt lat="40.974569" lon="-74.627847">
        <ele>297.313889</ele>
        <time>2024-09-07T07:56:43.000Z</time>
      </trkpt>
      <trkpt lat="40.974849" lon="-74.627588">
        <ele>297.387159</ele>
        <time>2024-09-07T07:56:47.000Z</time>
      </trkpt>
      <trkpt lat="40.974953" lon="-74.627391">
        <ele>297.429198</ele>
        <time>2024-09-07T07:56:49.000Z</time>
      </trkpt>
      <trkpt lat="40.975279" lon="-74.626559">
        <ele>297.313666</ele>
        <time>2024-09-07T07:56:57.000Z</time>
      </trkpt>
      <trkpt lat="40.975488" lon="-74.626217">
        <ele>296.823402</ele>
        <time>2024-09-07T07:57:01.000Z</time>
      </trkpt>
      <trkpt lat="40.975539" lon="-74.626342">
        <ele>296.668973</ele>
        <time>2024-09-07T07:57:02.000Z</time>
      </trkpt>
      <trkpt lat="40.975557" lon="-74.6265">
        <ele>296.489002</ele>
        <time>2024-09-07T07:57:03.000Z</time>
      </trkpt>
      <trkpt lat="40.975588" lon="-74.627151">
        <ele>295.749096</ele>
        <time>2024-09-07T07:57:08.000Z</time>
      </trkpt>
      <trkpt lat="40.975609" lon="-74.627371">
        <ele>295.501814</ele>
        <time>2024-09-07T07:57:10.000Z</time>
      </trkpt>
      <trkpt lat="40.975603" lon="-74.627374">
        <ele>295.489292</ele>
        <time>2024-09-07T07:57:10.000Z</time>
      </trkpt>
      <trkpt lat="40.975683" lon="-74.627645">
        <ele>295.164124</ele>
        <time>2024-09-07T07:57:12.000Z</time>
      </trkpt>
      <trkpt lat="40.975903" lon="-74.628429">
        <ele>294.089732</ele>
        <time>2024-09-07T07:57:19.000Z</time>
      </trkpt>
      <trkpt lat="40.976038" lon="-74.628647">
        <ele>293.705111</ele>
        <time>2024-09-07T07:57:21.000Z</time>
      </trkpt>
      <trkpt lat="40.976254" lon="-74.628876">
        <ele>293.206768</ele>
        <time>2024-09-07T07:57:24.000Z</time>
      </trkpt>
      <trkpt lat="40.976271" lon="-74.62889">
        <ele>293.165666</ele>
        <time>2024-09-07T07:57:24.000Z</time>
      </trkpt>
      <trkpt lat="40.976715" lon="-74.62934">
        <ele>292.186187</ele>
        <time>2024-09-07T07:57:30.000Z</time>
      </trkpt>
      <trkpt lat="40.976881" lon="-74.629698">
        <ele>291.623598</ele>
        <time>2024-09-07T07:57:34.000Z</time>
      </trkpt>
      <trkpt lat="40.976963" lon="-74.630025">
        <ele>291.470403</ele>
        <time>2024-09-07T07:57:37.000Z</time>
      </trkpt>
      <trkpt lat="40.976973" lon="-74.630417">
        <ele>291.293223</ele>
        <time>2024-09-07T07:57:40.000Z</time>
      </trkpt>
      <trkpt lat="40.976915" lon="-74.630753">
        <ele>291.136451</ele>
        <time>2024-09-07T07:57:43.000Z</time>
      </trkpt>
      <trkpt lat="40.976723" lon="-74.631175">
        <ele>290.92147</ele>
        <time>2024-09-07T07:57:47.000Z</time>
      </trkpt>
      <trkpt lat="40.976487" lon="-74.631445">
        <ele>290.731895</ele>
        <time>2024-09-07T07:57:50.000Z</time>
      </trkpt>
      <trkpt lat="40.976103" lon="-74.63168">
        <ele>290.402576</ele>
        <time>2024-09-07T07:57:55.000Z</time>
      </trkpt>
      <trkpt lat="40.97517" lon="-74.632014">
        <ele>289.258469</ele>
        <time>2024-09-07T07:58:06.000Z</time>
      </trkpt>
      <trkpt lat="40.975091" lon="-74.632073">
        <ele>289.133568</ele>
        <time>2024-09-07T07:58:07.000Z</time>
      </trkpt>
      <trkpt lat="40.974691" lon="-74.632369">
        <ele>288.593117</ele>
        <time>2024-09-07T07:58:12.000Z</time>
      </trkpt>
      <trkpt lat="40.974574" lon="-74.632462">
        <ele>288.431029</ele>
        <time>2024-09-07T07:58:14.000Z</time>
      </trkpt>
      <trkpt lat="40.974168" lon="-74.632858">
        <ele>288.261757</ele>
        <time>2024-09-07T07:58:20.000Z</time>
      </trkpt>
      <trkpt lat="40.973568" lon="-74.63341">
        <ele>288.030175</ele>
        <time>2024-09-07T07:58:28.000Z</time>
      </trkpt>
      <trkpt lat="40.972073" lon="-74.635114">
        <ele>287.635685</ele>
        <time>2024-09-07T07:58:50.000Z</time>
      </trkpt>
      <trkpt lat="40.971947" lon="-74.635249">
        <ele>287.612197</ele>
        <time>2024-09-07T07:58:52.000Z</time>
      </trkpt>
      <trkpt lat="40.971799" lon="-74.635404">
        <ele>287.584321</ele>
        <time>2024-09-07T07:58:54.000Z</time>
      </trkpt>
      <trkpt lat="40.971571" lon="-74.635668">
        <ele>287.49363</ele>
        <time>2024-09-07T07:58:57.000Z</time>
      </trkpt>
      <trkpt lat="40.970912" lon="-74.636402">
        <ele>287.198093</ele>
        <time>2024-09-07T07:59:07.000Z</time>
      </trkpt>
      <trkpt lat="40.970542" lon="-74.636744">
        <ele>287.042901</ele>
        <time>2024-09-07T07:59:12.000Z</time>
      </trkpt>
      <trkpt lat="40.970447" lon="-74.636927">
        <ele>286.987909</ele>
        <time>2024-09-07T07:59:14.000Z</time>
      </trkpt>
      <trkpt lat="40.970428" lon="-74.637293">
        <ele>286.804907</ele>
        <time>2024-09-07T07:59:17.000Z</time>
      </trkpt>
      <trkpt lat="40.970429" lon="-74.637926">
        <ele>286.45229</ele>
        <time>2024-09-07T07:59:22.000Z</time>
      </trkpt>
      <trkpt lat="40.970411" lon="-74.638151">
        <ele>286.324338</ele>
        <time>2024-09-07T07:59:24.000Z</time>
      </trkpt>
      <trkpt lat="40.970325" lon="-74.638443">
        <ele>286.146139</ele>
        <time>2024-09-07T07:59:27.000Z</time>
      </trkpt>
      <trkpt lat="40.970317" lon="-74.638742">
        <ele>285.972063</ele>
        <time>2024-09-07T07:59:30.000Z</time>
      </trkpt>
      <trkpt lat="40.970368" lon="-74.638929">
        <ele>285.85873</ele>
        <time>2024-09-07T07:59:32.000Z</time>
      </trkpt>
      <trkpt lat="40.970458" lon="-74.639093">
        <ele>285.745791</ele>
        <time>2024-09-07T07:59:34.000Z</time>
      </trkpt>
      <trkpt lat="40.970742" lon="-74.639314">
        <ele>285.658737</ele>
        <time>2024-09-07T07:59:38.000Z</time>
      </trkpt>
      <trkpt lat="40.970952" lon="-74.639534">
        <ele>285.728934</ele>
        <time>2024-09-07T07:59:41.000Z</time>
      </trkpt>
      <trkpt lat="40.971028" lon="-74.639693">
        <ele>285.769855</ele>
        <time>2024-09-07T07:59:43.000Z</time>
      </trkpt>
      <trkpt lat="40.971055" lon="-74.639884">
        <ele>285.8104</ele>
        <time>2024-09-07T07:59:45.000Z</time>
      </trkpt>
      <trkpt lat="40.971074" lon="-74.640164">
        <ele>285.866596</ele>
        <time>2024-09-07T07:59:47.000Z</time>
      </trkpt>
      <trkpt lat="40.97101" lon="-74.640508">
        <ele>285.938786</ele>
        <time>2024-09-07T07:59:50.000Z</time>
      </trkpt>
      <trkpt lat="40.970926" lon="-74.640714">
        <ele>285.985133</ele>
        <time>2024-09-07T07:59:52.000Z</time>
      </trkpt>
      <trkpt lat="40.97075" lon="-74.641024">
        <ele>286.065412</ele>
        <time>2024-09-07T07:59:55.000Z</time>
      </trkpt>
      <trkpt lat="40.970578" lon="-74.641231">
        <ele>286.325467</ele>
        <time>2024-09-07T07:59:58.000Z</time>
      </trkpt>
      <trkpt lat="40.970405" lon="-74.641415">
        <ele>286.871496</ele>
        <time>2024-09-07T08:00:00.000Z</time>
      </trkpt>
      <trkpt lat="40.970214" lon="-74.64165">
        <ele>287.470237</ele>
        <time>2024-09-07T08:00:03.000Z</time>
      </trkpt>
      <trkpt lat="40.96988" lon="-74.641866">
        <ele>288.341397</ele>
        <time>2024-09-07T08:00:07.000Z</time>
      </trkpt>
      <trkpt lat="40.969432" lon="-74.642125">
        <ele>289.498199</ele>
        <time>2024-09-07T08:00:12.000Z</time>
      </trkpt>
      <trkpt lat="40.969155" lon="-74.64241">
        <ele>290.33042</ele>
        <time>2024-09-07T08:00:16.000Z</time>
      </trkpt>
      <trkpt lat="40.968805" lon="-74.642685">
        <ele>291.132736</ele>
        <time>2024-09-07T08:00:21.000Z</time>
      </trkpt>
      <trkpt lat="40.968306" lon="-74.64291">
        <ele>292.230714</ele>
        <time>2024-09-07T08:00:27.000Z</time>
      </trkpt>
      <trkpt lat="40.968106" lon="-74.643061">
        <ele>292.697898</ele>
        <time>2024-09-07T08:00:30.000Z</time>
      </trkpt>
      <trkpt lat="40.96767" lon="-74.643339">
        <ele>293.68245</ele>
        <time>2024-09-07T08:00:35.000Z</time>
      </trkpt>
      <trkpt lat="40.967488" lon="-74.643551">
        <ele>293.970156</ele>
        <time>2024-09-07T08:00:38.000Z</time>
      </trkpt>
      <trkpt lat="40.96729" lon="-74.643661">
        <ele>293.938094</ele>
        <time>2024-09-07T08:00:40.000Z</time>
      </trkpt>
      <trkpt lat="40.966967" lon="-74.64397">
        <ele>293.880147</ele>
        <time>2024-09-07T08:00:44.000Z</time>
      </trkpt>
      <trkpt lat="40.966729" lon="-74.644279">
        <ele>293.829998</ele>
        <time>2024-09-07T08:00:48.000Z</time>
      </trkpt>
      <trkpt lat="40.966642" lon="-74.64441">
        <ele>293.809816</ele>
        <time>2024-09-07T08:00:49.000Z</time>
      </trkpt>
      <trkpt lat="40.965939" lon="-74.645518">
        <ele>293.599018</ele>
        <time>2024-09-07T08:01:01.000Z</time>
      </trkpt>
      <trkpt lat="40.965624" lon="-74.646083">
        <ele>293.462727</ele>
        <time>2024-09-07T08:01:07.000Z</time>
      </trkpt>
      <trkpt lat="40.965578" lon="-74.646565">
        <ele>293.37073</ele>
        <time>2024-09-07T08:01:11.000Z</time>
      </trkpt>
      <trkpt lat="40.965626" lon="-74.64695">
        <ele>293.295182</ele>
        <time>2024-09-07T08:01:14.000Z</time>
      </trkpt>
      <trkpt lat="40.965877" lon="-74.647473">
        <ele>292.727717</ele>
        <time>2024-09-07T08:01:19.000Z</time>
      </trkpt>
      <trkpt lat="40.96608" lon="-74.647599">
        <ele>292.350297</ele>
        <time>2024-09-07T08:01:21.000Z</time>
      </trkpt>
      <trkpt lat="40.966397" lon="-74.647716">
        <ele>291.768162</ele>
        <time>2024-09-07T08:01:25.000Z</time>
      </trkpt>
      <trkpt lat="40.966632" lon="-74.647785">
        <ele>291.369282</ele>
        <time>2024-09-07T08:01:28.000Z</time>
      </trkpt>
      <trkpt lat="40.966847" lon="-74.647911">
        <ele>290.949711</ele>
        <time>2024-09-07T08:01:31.000Z</time>
      </trkpt>
      <trkpt lat="40.967012" lon="-74.648029">
        <ele>290.638109</ele>
        <time>2024-09-07T08:01:33.000Z</time>
      </trkpt>
      <trkpt lat="40.967144" lon="-74.648165">
        <ele>290.33771</ele>
        <time>2024-09-07T08:01:35.000Z</time>
      </trkpt>
      <trkpt lat="40.967253" lon="-74.648353">
        <ele>290.076262</ele>
        <time>2024-09-07T08:01:37.000Z</time>
      </trkpt>
      <trkpt lat="40.967319" lon="-74.64853">
        <ele>289.894494</ele>
        <time>2024-09-07T08:01:39.000Z</time>
      </trkpt>
      <trkpt lat="40.967391" lon="-74.648749">
        <ele>289.687127</ele>
        <time>2024-09-07T08:01:41.000Z</time>
      </trkpt>
      <trkpt lat="40.967451" lon="-74.649034">
        <ele>289.442542</ele>
        <time>2024-09-07T08:01:43.000Z</time>
      </trkpt>
      <trkpt lat="40.967438" lon="-74.649428">
        <ele>289.102482</ele>
        <time>2024-09-07T08:01:46.000Z</time>
      </trkpt>
      <trkpt lat="40.96735" lon="-74.649736">
        <ele>288.805201</ele>
        <time>2024-09-07T08:01:49.000Z</time>
      </trkpt>
      <trkpt lat="40.967262" lon="-74.650005">
        <ele>288.547685</ele>
        <time>2024-09-07T08:01:51.000Z</time>
      </trkpt>
      <trkpt lat="40.966832" lon="-74.65057">
        <ele>288.523196</ele>
        <time>2024-09-07T08:01:58.000Z</time>
      </trkpt>
      <trkpt lat="40.966562" lon="-74.650991">
        <ele>289.494645</ele>
        <time>2024-09-07T08:02:03.000Z</time>
      </trkpt>
      <trkpt lat="40.966377" lon="-74.651544">
        <ele>290.577668</ele>
        <time>2024-09-07T08:02:08.000Z</time>
      </trkpt>
      <trkpt lat="40.966295" lon="-74.651826">
        <ele>291.119876</ele>
        <time>2024-09-07T08:02:11.000Z</time>
      </trkpt>
      <trkpt lat="40.966228" lon="-74.652054">
        <ele>291.530661</ele>
        <time>2024-09-07T08:02:13.000Z</time>
      </trkpt>
      <trkpt lat="40.965708" lon="-74.653507">
        <ele>295.573879</ele>
        <time>2024-09-07T08:02:27.000Z</time>
      </trkpt>
      <trkpt lat="40.96559" lon="-74.654048">
        <ele>297.192893</ele>
        <time>2024-09-07T08:02:32.000Z</time>
      </trkpt>
      <trkpt lat="40.965426" lon="-74.654481">
        <ele>298.518508</ele>
        <time>2024-09-07T08:02:36.000Z</time>
      </trkpt>
      <trkpt lat="40.965356" lon="-74.654591">
        <ele>298.911711</ele>
        <time>2024-09-07T08:02:37.000Z</time>
      </trkpt>
      <trkpt lat="40.965095" lon="-74.654905">
        <ele>299.605724</ele>
        <time>2024-09-07T08:02:41.000Z</time>
      </trkpt>
      <trkpt lat="40.964926" lon="-74.655146">
        <ele>300.086119</ele>
        <time>2024-09-07T08:02:44.000Z</time>
      </trkpt>
      <trkpt lat="40.964802" lon="-74.655435">
        <ele>300.556455</ele>
        <time>2024-09-07T08:02:47.000Z</time>
      </trkpt>
      <trkpt lat="40.964714" lon="-74.655964">
        <ele>301.321158</ele>
        <time>2024-09-07T08:02:52.000Z</time>
      </trkpt>
      <trkpt lat="40.964717" lon="-74.656291">
        <ele>301.790535</ele>
        <time>2024-09-07T08:02:55.000Z</time>
      </trkpt>
      <trkpt lat="40.964791" lon="-74.656648">
        <ele>302.322144</ele>
        <time>2024-09-07T08:02:58.000Z</time>
      </trkpt>
      <trkpt lat="40.964804" lon="-74.657003">
        <ele>302.34777</ele>
        <time>2024-09-07T08:03:01.000Z</time>
      </trkpt>
      <trkpt lat="40.964789" lon="-74.657318">
        <ele>302.360657</ele>
        <time>2024-09-07T08:03:04.000Z</time>
      </trkpt>
      <trkpt lat="40.964819" lon="-74.657558">
        <ele>302.370545</ele>
        <time>2024-09-07T08:03:06.000Z</time>
      </trkpt>
      <trkpt lat="40.964933" lon="-74.658057">
        <ele>302.392269</ele>
        <time>2024-09-07T08:03:10.000Z</time>
      </trkpt>
      <trkpt lat="40.964954" lon="-74.658359">
        <ele>302.404037</ele>
        <time>2024-09-07T08:03:13.000Z</time>
      </trkpt>
      <trkpt lat="40.964899" lon="-74.658667">
        <ele>302.417744</ele>
        <time>2024-09-07T08:03:16.000Z</time>
      </trkpt>
      <trkpt lat="40.964708" lon="-74.659046">
        <ele>302.531495</ele>
        <time>2024-09-07T08:03:20.000Z</time>
      </trkpt>
      <trkpt lat="40.964592" lon="-74.659173">
        <ele>302.7338</ele>
        <time>2024-09-07T08:03:22.000Z</time>
      </trkpt>
      <trkpt lat="40.963829" lon="-74.659592">
        <ele>303.756975</ele>
        <time>2024-09-07T08:03:31.000Z</time>
      </trkpt>
      <trkpt lat="40.963576" lon="-74.659871">
        <ele>304.187078</ele>
        <time>2024-09-07T08:03:35.000Z</time>
      </trkpt>
      <trkpt lat="40.962895" lon="-74.660764">
        <ele>306.237044</ele>
        <time>2024-09-07T08:03:46.000Z</time>
      </trkpt>
      <trkpt lat="40.962815" lon="-74.660856">
        <ele>306.508972</ele>
        <time>2024-09-07T08:03:47.000Z</time>
      </trkpt>
      <trkpt lat="40.962401" lon="-74.661018">
        <ele>307.752612</ele>
        <time>2024-09-07T08:03:52.000Z</time>
      </trkpt>
      <trkpt lat="40.961798" lon="-74.661375">
        <ele>309.60549</ele>
        <time>2024-09-07T08:03:59.000Z</time>
      </trkpt>
      <trkpt lat="40.961659" lon="-74.661478">
        <ele>309.809207</ele>
        <time>2024-09-07T08:04:01.000Z</time>
      </trkpt>
      <trkpt lat="40.961348" lon="-74.661911">
        <ele>310.146753</ele>
        <time>2024-09-07T08:04:06.000Z</time>
      </trkpt>
      <trkpt lat="40.961188" lon="-74.662055">
        <ele>310.292175</ele>
        <time>2024-09-07T08:04:08.000Z</time>
      </trkpt>
      <trkpt lat="40.960534" lon="-74.662445">
        <ele>310.81792</ele>
        <time>2024-09-07T08:04:16.000Z</time>
      </trkpt>
      <trkpt lat="40.960479" lon="-74.662505">
        <ele>310.876716</ele>
        <time>2024-09-07T08:04:17.000Z</time>
      </trkpt>
      <trkpt lat="40.960242" lon="-74.663054">
        <ele>310.38589</ele>
        <time>2024-09-07T08:04:22.000Z</time>
      </trkpt>
      <trkpt lat="40.960123" lon="-74.66321">
        <ele>309.901588</ele>
        <time>2024-09-07T08:04:24.000Z</time>
      </trkpt>
      <trkpt lat="40.959942" lon="-74.663339">
        <ele>309.31285</ele>
        <time>2024-09-07T08:04:26.000Z</time>
      </trkpt>
      <trkpt lat="40.959458" lon="-74.663465">
        <ele>307.807109</ele>
        <time>2024-09-07T08:04:31.000Z</time>
      </trkpt>
      <trkpt lat="40.959323" lon="-74.663527">
        <ele>307.363094</ele>
        <time>2024-09-07T08:04:33.000Z</time>
      </trkpt>
      <trkpt lat="40.959134" lon="-74.663683">
        <ele>306.716097</ele>
        <time>2024-09-07T08:04:35.000Z</time>
      </trkpt>
      <trkpt lat="40.958941" lon="-74.663982">
        <ele>305.806002</ele>
        <time>2024-09-07T08:04:38.000Z</time>
      </trkpt>
      <trkpt lat="40.958478" lon="-74.663601">
        <ele>304.24327</ele>
        <time>2024-09-07T08:04:44.000Z</time>
      </trkpt>
      <trkpt lat="40.958118" lon="-74.663364">
        <ele>303.080824</ele>
        <time>2024-09-07T08:04:48.000Z</time>
      </trkpt>
      <trkpt lat="40.957814" lon="-74.663277">
        <ele>302.230404</ele>
        <time>2024-09-07T08:04:51.000Z</time>
      </trkpt>
      <trkpt lat="40.957417" lon="-74.663198">
        <ele>301.045275</ele>
        <time>2024-09-07T08:04:55.000Z</time>
      </trkpt>
      <trkpt lat="40.956809" lon="-74.663141">
        <ele>299.278285</ele>
        <time>2024-09-07T08:05:02.000Z</time>
      </trkpt>
      <trkpt lat="40.956625" lon="-74.663082">
        <ele>298.753895</ele>
        <time>2024-09-07T08:05:04.000Z</time>
      </trkpt>
      <trkpt lat="40.956333" lon="-74.662799">
        <ele>297.657199</ele>
        <time>2024-09-07T08:05:08.000Z</time>
      </trkpt>
      <trkpt lat="40.956202" lon="-74.662523">
        <ele>296.931282</ele>
        <time>2024-09-07T08:05:11.000Z</time>
      </trkpt>
      <trkpt lat="40.956038" lon="-74.662294">
        <ele>296.221422</ele>
        <time>2024-09-07T08:05:14.000Z</time>
      </trkpt>
      <trkpt lat="40.955711" lon="-74.661956">
        <ele>295.004202</ele>
        <time>2024-09-07T08:05:19.000Z</time>
      </trkpt>
      <trkpt lat="40.955402" lon="-74.661649">
        <ele>294.002303</ele>
        <time>2024-09-07T08:05:23.000Z</time>
      </trkpt>
      <trkpt lat="40.955109" lon="-74.661427">
        <ele>293.089603</ele>
        <time>2024-09-07T08:05:27.000Z</time>
      </trkpt>
      <trkpt lat="40.954931" lon="-74.661253">
        <ele>292.486653</ele>
        <time>2024-09-07T08:05:29.000Z</time>
      </trkpt>
      <trkpt lat="40.954923" lon="-74.661155">
        <ele>292.293558</ele>
        <time>2024-09-07T08:05:30.000Z</time>
      </trkpt>
      <trkpt lat="40.954881" lon="-74.660967">
        <ele>291.900377</ele>
        <time>2024-09-07T08:05:32.000Z</time>
      </trkpt>
      <trkpt lat="40.95489" lon="-74.660643">
        <ele>291.251051</ele>
        <time>2024-09-07T08:05:35.000Z</time>
      </trkpt>
      <trkpt lat="40.954946" lon="-74.660399">
        <ele>290.7197</ele>
        <time>2024-09-07T08:05:37.000Z</time>
      </trkpt>
      <trkpt lat="40.955229" lon="-74.659918">
        <ele>290.55932</ele>
        <time>2024-09-07T08:05:42.000Z</time>
      </trkpt>
      <trkpt lat="40.956079" lon="-74.658961">
        <ele>291.134548</ele>
        <time>2024-09-07T08:05:54.000Z</time>
      </trkpt>
      <trkpt lat="40.956679" lon="-74.658381">
        <ele>291.946856</ele>
        <time>2024-09-07T08:06:02.000Z</time>
      </trkpt>
      <trkpt lat="40.957292" lon="-74.657873">
        <ele>293.084106</ele>
        <time>2024-09-07T08:06:10.000Z</time>
      </trkpt>
      <trkpt lat="40.957402" lon="-74.657751">
        <ele>293.329188</ele>
        <time>2024-09-07T08:06:12.000Z</time>
      </trkpt>
      <trkpt lat="40.957584" lon="-74.65749">
        <ele>293.732898</ele>
        <time>2024-09-07T08:06:15.000Z</time>
      </trkpt>
      <trkpt lat="40.957752" lon="-74.657146">
        <ele>294.1659</ele>
        <time>2024-09-07T08:06:18.000Z</time>
      </trkpt>
      <trkpt lat="40.957863" lon="-74.656879">
        <ele>294.182848</ele>
        <time>2024-09-07T08:06:21.000Z</time>
      </trkpt>
      <trkpt lat="40.957944" lon="-74.656446">
        <ele>294.208133</ele>
        <time>2024-09-07T08:06:25.000Z</time>
      </trkpt>
      <trkpt lat="40.957945" lon="-74.655441">
        <ele>294.263975</ele>
        <time>2024-09-07T08:06:33.000Z</time>
      </trkpt>
      <trkpt lat="40.958038" lon="-74.655112">
        <ele>294.283445</ele>
        <time>2024-09-07T08:06:36.000Z</time>
      </trkpt>
      <trkpt lat="40.958217" lon="-74.654906">
        <ele>294.331993</ele>
        <time>2024-09-07T08:06:39.000Z</time>
      </trkpt>
      <trkpt lat="40.958746" lon="-74.654474">
        <ele>294.679973</ele>
        <time>2024-09-07T08:06:46.000Z</time>
      </trkpt>
      <trkpt lat="40.959354" lon="-74.653839">
        <ele>295.11372</ele>
        <time>2024-09-07T08:06:55.000Z</time>
      </trkpt>
      <trkpt lat="40.959534" lon="-74.653698">
        <ele>295.228947</ele>
        <time>2024-09-07T08:06:57.000Z</time>
      </trkpt>
      <trkpt lat="40.959583" lon="-74.653657">
        <ele>295.261505</ele>
        <time>2024-09-07T08:06:58.000Z</time>
      </trkpt>
      <trkpt lat="40.959697" lon="-74.653527">
        <ele>295.282825</ele>
        <time>2024-09-07T08:07:00.000Z</time>
      </trkpt>
      <trkpt lat="40.959753" lon="-74.653429">
        <ele>295.265224</ele>
        <time>2024-09-07T08:07:01.000Z</time>
      </trkpt>
      <trkpt lat="40.959838" lon="-74.652878">
        <ele>295.1937</ele>
        <time>2024-09-07T08:07:06.000Z</time>
      </trkpt>
      <trkpt lat="40.959934" lon="-74.652025">
        <ele>295.083913</ele>
        <time>2024-09-07T08:07:13.000Z</time>
      </trkpt>
      <trkpt lat="40.959901" lon="-74.651841">
        <ele>295.059553</ele>
        <time>2024-09-07T08:07:15.000Z</time>
      </trkpt>
      <trkpt lat="40.959896" lon="-74.65177">
        <ele>295.050922</ele>
        <time>2024-09-07T08:07:16.000Z</time>
      </trkpt>
      <trkpt lat="40.959796" lon="-74.651552">
        <ele>295.018611</ele>
        <time>2024-09-07T08:07:18.000Z</time>
      </trkpt>
      <trkpt lat="40.959615" lon="-74.651383">
        <ele>294.835482</ele>
        <time>2024-09-07T08:07:20.000Z</time>
      </trkpt>
      <trkpt lat="40.959454" lon="-74.6513">
        <ele>294.417569</ele>
        <time>2024-09-07T08:07:22.000Z</time>
      </trkpt>
      <trkpt lat="40.958882" lon="-74.650984">
        <ele>292.930385</ele>
        <time>2024-09-07T08:07:29.000Z</time>
      </trkpt>
      <trkpt lat="40.958787" lon="-74.650914">
        <ele>292.676272</ele>
        <time>2024-09-07T08:07:30.000Z</time>
      </trkpt>
      <trkpt lat="40.958718" lon="-74.650778">
        <ele>292.369947</ele>
        <time>2024-09-07T08:07:31.000Z</time>
      </trkpt>
      <trkpt lat="40.958553" lon="-74.650358">
        <ele>291.5134</ele>
        <time>2024-09-07T08:07:35.000Z</time>
      </trkpt>
      <trkpt lat="40.958349" lon="-74.649741">
        <ele>290.588648</ele>
        <time>2024-09-07T08:07:41.000Z</time>
      </trkpt>
      <trkpt lat="40.958064" lon="-74.649308">
        <ele>290.329091</ele>
        <time>2024-09-07T08:07:46.000Z</time>
      </trkpt>
      <trkpt lat="40.957851" lon="-74.648985">
        <ele>290.132795</ele>
        <time>2024-09-07T08:07:50.000Z</time>
      </trkpt>
      <trkpt lat="40.957626" lon="-74.648818">
        <ele>289.9765</ele>
        <time>2024-09-07T08:07:53.000Z</time>
      </trkpt>
      <trkpt lat="40.957396" lon="-74.648751">
        <ele>289.841709</ele>
        <time>2024-09-07T08:07:56.000Z</time>
      </trkpt>
      <trkpt lat="40.956294" lon="-74.648683">
        <ele>289.937571</ele>
        <time>2024-09-07T08:08:08.000Z</time>
      </trkpt>
      <trkpt lat="40.956096" lon="-74.6486">
        <ele>290.038865</ele>
        <time>2024-09-07T08:08:10.000Z</time>
      </trkpt>
      <trkpt lat="40.955915" lon="-74.648438">
        <ele>290.141698</ele>
        <time>2024-09-07T08:08:12.000Z</time>
      </trkpt>
      <trkpt lat="40.955627" lon="-74.648063">
        <ele>290.33589</ele>
        <time>2024-09-07T08:08:16.000Z</time>
      </trkpt>
      <trkpt lat="40.955408" lon="-74.647788">
        <ele>290.507391</ele>
        <time>2024-09-07T08:08:19.000Z</time>
      </trkpt>
      <trkpt lat="40.954948" lon="-74.648387">
        <ele>291.193228</ele>
        <time>2024-09-07T08:08:26.000Z</time>
      </trkpt>
      <trkpt lat="40.954599" lon="-74.648703">
        <ele>291.660435</ele>
        <time>2024-09-07T08:08:31.000Z</time>
      </trkpt>
      <trkpt lat="40.95375" lon="-74.649478">
        <ele>292.240518</ele>
        <time>2024-09-07T08:08:42.000Z</time>
      </trkpt>
      <trkpt lat="40.953558" lon="-74.649916">
        <ele>292.05416</ele>
        <time>2024-09-07T08:08:46.000Z</time>
      </trkpt>
      <trkpt lat="40.953164" lon="-74.650524">
        <ele>291.760183</ele>
        <time>2024-09-07T08:08:53.000Z</time>
      </trkpt>
      <trkpt lat="40.952924" lon="-74.650723">
        <ele>291.627436</ele>
        <time>2024-09-07T08:08:56.000Z</time>
      </trkpt>
      <trkpt lat="40.95188" lon="-74.65167">
        <ele>288.337434</ele>
        <time>2024-09-07T08:09:10.000Z</time>
      </trkpt>
      <trkpt lat="40.951394" lon="-74.65214">
        <ele>286.605566</ele>
        <time>2024-09-07T08:09:17.000Z</time>
      </trkpt>
      <trkpt lat="40.951078" lon="-74.652524">
        <ele>286.024103</ele>
        <time>2024-09-07T08:09:22.000Z</time>
      </trkpt>
      <trkpt lat="40.950879" lon="-74.652774">
        <ele>285.858922</ele>
        <time>2024-09-07T08:09:25.000Z</time>
      </trkpt>
      <trkpt lat="40.950152" lon="-74.653438">
        <ele>285.309455</ele>
        <time>2024-09-07T08:09:35.000Z</time>
      </trkpt>
      <trkpt lat="40.949743" lon="-74.653625">
        <ele>285.307181</ele>
        <time>2024-09-07T08:09:40.000Z</time>
      </trkpt>
      <trkpt lat="40.949589" lon="-74.653754">
        <ele>285.782181</ele>
        <time>2024-09-07T08:09:42.000Z</time>
      </trkpt>
      <trkpt lat="40.949389" lon="-74.654211">
        <ele>286.722425</ele>
        <time>2024-09-07T08:09:46.000Z</time>
      </trkpt>
      <trkpt lat="40.948986" lon="-74.654755">
        <ele>288.115835</ele>
        <time>2024-09-07T08:09:52.000Z</time>
      </trkpt>
      <trkpt lat="40.94788" lon="-74.655486">
        <ele>290.883543</ele>
        <time>2024-09-07T08:10:06.000Z</time>
      </trkpt>
      <trkpt lat="40.947443" lon="-74.655924">
        <ele>292.03074</ele>
        <time>2024-09-07T08:10:12.000Z</time>
      </trkpt>
      <trkpt lat="40.946617" lon="-74.656632">
        <ele>292.868911</ele>
        <time>2024-09-07T08:10:23.000Z</time>
      </trkpt>
      <trkpt lat="40.946356" lon="-74.656825">
        <ele>292.616277</ele>
        <time>2024-09-07T08:10:26.000Z</time>
      </trkpt>
      <trkpt lat="40.945877" lon="-74.656828">
        <ele>292.196534</ele>
        <time>2024-09-07T08:10:31.000Z</time>
      </trkpt>
      <trkpt lat="40.945453" lon="-74.657014">
        <ele>291.812011</ele>
        <time>2024-09-07T08:10:36.000Z</time>
      </trkpt>
      <trkpt lat="40.943513" lon="-74.65816">
        <ele>285.974347</ele>
        <time>2024-09-07T08:11:00.000Z</time>
      </trkpt>
      <trkpt lat="40.942766" lon="-74.658568">
        <ele>284.220249</ele>
        <time>2024-09-07T08:11:09.000Z</time>
      </trkpt>
      <trkpt lat="40.942208" lon="-74.659114">
        <ele>282.724051</ele>
        <time>2024-09-07T08:11:17.000Z</time>
      </trkpt>
      <trkpt lat="40.941943" lon="-74.659496">
        <ele>282.077694195</ele>
        <time>2024-09-07T08:11:21.000Z</time>
      </trkpt>
      <trkpt lat="40.941138" lon="-74.660352">
        <ele>280.374205128</ele>
        <time>2024-09-07T08:11:32.000Z</time>
      </trkpt>
    </trkseg>
  </trk>
</gpx>

<!--
Performance optimized by W3 Total Cache. Learn more: https://www.boldgrid.com/w3-total-cache/?utm_source=w3tc&utm_medium=footer_comment&utm_campaign=free_plugin

Page Caching using Disk: Enhanced{w3tc_pagecache_reject_reason} 

Served from: www.aquabike.world @ 2026-05-10 20:12:44 by W3 Total Cache
-->